createdAt,value
2022-12-20T00:01:24.499Z,100.00
2022-12-20T00:03:52.992Z,100.00
2022-12-20T00:06:20.815Z,100.00
2022-12-20T00:08:52.570Z,100.00
2022-12-20T00:11:19.164Z,100.00
2022-12-20T00:13:47.240Z,100.00
2022-12-20T00:16:17.033Z,100.00
2022-12-20T00:18:43.985Z,100.00
2022-12-20T00:21:13.281Z,100.00
2022-12-20T00:23:40.700Z,100.00
2022-12-20T00:26:13.275Z,100.00
2022-12-20T00:28:41.608Z,100.00
2022-12-20T00:31:13.462Z,100.00
2022-12-20T00:33:41.189Z,100.00
2022-12-20T00:36:09.198Z,100.00
2022-12-20T00:38:36.188Z,100.00
2022-12-20T00:41:13.099Z,100.00
2022-12-20T00:43:40.708Z,100.00
2022-12-20T00:46:08.731Z,99.97
2022-12-20T00:48:36.268Z,100.00
2022-12-20T00:51:06.618Z,100.00
2022-12-20T00:53:34.236Z,100.00
2022-12-20T00:56:01.558Z,100.00
2022-12-20T00:58:28.688Z,100.00
2022-12-20T01:00:56.936Z,100.00
2022-12-20T01:03:25.171Z,100.00
2022-12-20T01:05:57.414Z,100.00
2022-12-20T01:08:25.687Z,100.00
2022-12-20T01:11:06.654Z,100.00
2022-12-20T01:13:35.551Z,100.00
2022-12-20T01:16:13.433Z,100.00
2022-12-20T01:18:40.170Z,100.00
2022-12-20T01:21:10.394Z,100.00
2022-12-20T01:23:37.191Z,100.00
2022-12-20T01:26:06.081Z,100.00
2022-12-20T01:28:33.196Z,100.00
2022-12-20T01:31:00.245Z,100.00
2022-12-20T01:33:26.976Z,100.00
2022-12-20T01:36:03.873Z,100.00
2022-12-20T01:38:30.790Z,100.00
2022-12-20T01:40:58.110Z,100.00
2022-12-20T01:43:26.792Z,100.00
2022-12-20T01:45:53.548Z,100.00
2022-12-20T01:48:26.362Z,100.00
2022-12-20T01:50:53.750Z,100.00
2022-12-20T01:53:24.608Z,100.00
2022-12-20T01:55:51.254Z,100.00
2022-12-20T01:58:19.939Z,99.94
2022-12-20T02:00:47.577Z,100.00
2022-12-20T02:03:15.481Z,100.00
2022-12-20T02:05:45.696Z,100.00
2022-12-20T02:08:17.031Z,100.00
2022-12-20T02:11:06.426Z,100.00
2022-12-20T02:14:05.514Z,100.00
2022-12-20T02:16:43.417Z,100.00
2022-12-20T02:19:50.759Z,100.00
2022-12-20T02:22:44.925Z,100.00
2022-12-20T02:25:20.618Z,100.00
2022-12-20T02:28:07.081Z,100.00
2022-12-20T02:30:38.219Z,100.00
2022-12-20T02:33:08.688Z,100.00
2022-12-20T02:35:37.609Z,100.00
2022-12-20T02:38:25.063Z,100.00
2022-12-20T02:40:56.915Z,100.00
2022-12-20T02:43:45.753Z,100.00
2022-12-20T02:46:13.660Z,100.00
2022-12-20T02:48:41.313Z,100.00
2022-12-20T02:51:10.268Z,100.00
2022-12-20T02:53:38.317Z,100.00
2022-12-20T02:56:16.936Z,100.00
2022-12-20T02:58:59.061Z,100.00
2022-12-20T03:01:33.716Z,100.00
2022-12-20T03:04:01.478Z,100.00
2022-12-20T03:06:28.297Z,100.00
2022-12-20T03:08:54.992Z,100.00
2022-12-20T03:11:21.540Z,100.00
2022-12-20T03:13:48.196Z,100.00
2022-12-20T03:16:14.797Z,100.00
2022-12-20T03:18:41.403Z,100.00
2022-12-20T03:21:08.079Z,100.00
2022-12-20T03:23:34.738Z,100.00
2022-12-20T03:26:01.609Z,100.00
2022-12-20T03:28:28.232Z,100.00
2022-12-20T03:30:54.995Z,100.00
2022-12-20T03:33:21.711Z,100.00
2022-12-20T03:35:48.711Z,100.00
2022-12-20T03:38:15.391Z,100.00
2022-12-20T03:40:42.044Z,100.00
2022-12-20T03:43:08.684Z,100.00
2022-12-20T03:45:35.299Z,100.00
2022-12-20T03:48:01.867Z,100.00
2022-12-20T03:50:28.527Z,100.00
2022-12-20T03:52:55.177Z,100.00
2022-12-20T03:55:21.793Z,100.00
2022-12-20T03:57:48.313Z,100.00
2022-12-20T04:00:15.746Z,100.00
2022-12-20T04:02:42.433Z,100.00
2022-12-20T04:05:09.314Z,100.00
2022-12-20T04:07:35.995Z,100.00
2022-12-20T04:10:02.614Z,100.00
2022-12-20T04:12:29.323Z,100.00
2022-12-20T04:14:56.106Z,100.00
2022-12-20T04:17:22.744Z,100.00
2022-12-20T04:19:49.367Z,100.00
2022-12-20T04:22:15.938Z,100.00
2022-12-20T04:24:42.574Z,100.00
2022-12-20T04:27:09.167Z,100.00
2022-12-20T04:29:37.027Z,100.00
2022-12-20T04:32:03.904Z,100.00
2022-12-20T04:34:30.544Z,100.00
2022-12-20T04:36:57.156Z,100.00
2022-12-20T04:39:23.900Z,100.00
2022-12-20T04:41:50.543Z,100.00
2022-12-20T04:44:17.195Z,100.00
2022-12-20T04:46:43.832Z,100.00
2022-12-20T04:49:10.449Z,100.00
2022-12-20T04:51:37.087Z,100.00
2022-12-20T04:54:03.782Z,100.00
2022-12-20T04:56:30.462Z,100.00
2022-12-20T04:58:58.940Z,100.00
2022-12-20T05:01:26.455Z,100.00
2022-12-20T05:03:53.857Z,100.00
2022-12-20T05:06:20.703Z,100.00
2022-12-20T05:08:48.013Z,100.00
2022-12-20T05:11:15.012Z,100.00
2022-12-20T05:13:41.866Z,100.00
2022-12-20T05:16:08.723Z,100.00
2022-12-20T05:18:36.065Z,100.00
2022-12-20T05:21:21.837Z,100.00
2022-12-20T05:24:07.781Z,100.00
2022-12-20T05:26:37.239Z,100.00
2022-12-20T05:29:04.990Z,100.00
2022-12-20T05:31:32.058Z,100.00
2022-12-20T05:33:58.780Z,100.00
2022-12-20T05:36:25.421Z,100.00
2022-12-20T05:38:53.029Z,100.00
2022-12-20T05:41:22.064Z,100.00
2022-12-20T05:43:48.709Z,100.00
2022-12-20T05:46:15.538Z,100.00
2022-12-20T05:48:42.340Z,100.00
2022-12-20T05:51:10.228Z,100.00
2022-12-20T05:53:36.882Z,100.00
2022-12-20T05:56:03.951Z,100.00
2022-12-20T05:58:30.622Z,100.00
2022-12-20T06:00:57.537Z,100.00
2022-12-20T06:03:24.250Z,100.00
2022-12-20T06:05:50.879Z,100.00
2022-12-20T06:08:17.527Z,100.00
2022-12-20T06:10:44.359Z,100.00
2022-12-20T06:13:11.425Z,100.00
2022-12-20T06:15:38.619Z,100.00
2022-12-20T06:18:06.230Z,100.00
2022-12-20T06:20:34.557Z,100.00
2022-12-20T06:23:01.819Z,100.00
2022-12-20T06:25:28.940Z,100.00
2022-12-20T06:27:55.609Z,100.00
2022-12-20T06:30:23.953Z,100.00
2022-12-20T06:32:55.635Z,100.00
2022-12-20T06:35:22.195Z,100.00
2022-12-20T06:37:48.849Z,100.00
2022-12-20T06:40:15.632Z,100.00
2022-12-20T06:42:42.415Z,100.00
2022-12-20T06:45:09.739Z,100.00
2022-12-20T06:47:36.758Z,100.00
2022-12-20T06:50:05.980Z,100.00
2022-12-20T06:52:32.676Z,100.00
2022-12-20T06:54:59.223Z,100.00
2022-12-20T06:57:25.867Z,100.00
2022-12-20T06:59:52.536Z,100.00
2022-12-20T07:02:19.409Z,100.00
2022-12-20T07:04:46.124Z,100.00
2022-12-20T07:07:13.975Z,100.00
2022-12-20T07:09:42.893Z,100.00
2022-12-20T07:12:10.432Z,100.00
2022-12-20T07:14:37.069Z,100.00
2022-12-20T07:17:04.859Z,100.00
2022-12-20T07:19:31.647Z,100.00
2022-12-20T07:21:59.315Z,100.00
2022-12-20T07:24:26.201Z,100.00
2022-12-20T07:26:52.835Z,100.00
2022-12-20T07:29:19.597Z,100.00
2022-12-20T07:31:46.539Z,100.00
2022-12-20T07:34:13.316Z,100.00
2022-12-20T07:36:40.039Z,100.00
2022-12-20T07:39:06.733Z,100.00
2022-12-20T07:41:33.279Z,100.00
2022-12-20T07:43:59.933Z,100.00
2022-12-20T07:46:27.030Z,100.00
2022-12-20T07:48:54.988Z,100.00
2022-12-20T07:51:31.803Z,100.00
2022-12-20T07:54:04.151Z,100.00
2022-12-20T07:56:41.072Z,100.00
2022-12-20T07:59:12.101Z,100.00
2022-12-20T08:01:40.420Z,100.00
2022-12-20T08:04:13.166Z,100.00
2022-12-20T08:06:41.080Z,100.00
2022-12-20T08:09:12.882Z,100.00
2022-12-20T08:11:41.398Z,100.00
2022-12-20T08:14:08.529Z,100.00
2022-12-20T08:16:35.424Z,100.00
2022-12-20T08:19:02.060Z,100.00
2022-12-20T08:21:29.320Z,100.00
2022-12-20T08:23:56.806Z,100.00
2022-12-20T08:26:23.641Z,100.00
2022-12-20T08:28:50.391Z,100.00
2022-12-20T08:31:17.184Z,100.00
2022-12-20T08:33:43.871Z,100.00
2022-12-20T08:36:12.736Z,100.00
2022-12-20T08:38:40.124Z,100.00
2022-12-20T08:41:11.163Z,100.00
2022-12-20T08:43:39.332Z,100.00
2022-12-20T08:46:07.354Z,100.00
2022-12-20T08:48:34.540Z,100.00
2022-12-20T08:51:04.029Z,100.00
2022-12-20T08:53:31.601Z,100.00
2022-12-20T08:56:27.900Z,100.00
2022-12-20T08:58:54.619Z,100.00
2022-12-20T09:01:22.979Z,100.00
2022-12-20T09:03:50.152Z,100.00
2022-12-20T09:06:22.926Z,100.00
2022-12-20T09:08:50.402Z,100.00
2022-12-20T09:11:20.917Z,100.00
2022-12-20T09:13:50.391Z,100.00
2022-12-20T09:16:21.527Z,98.19
2022-12-20T09:18:52.847Z,96.63
2022-12-20T09:21:20.307Z,95.55
2022-12-20T09:23:48.500Z,93.47
2022-12-20T09:26:16.537Z,93.03
2022-12-20T09:28:44.323Z,93.23
2022-12-20T09:31:13.665Z,93.31
2022-12-20T09:33:40.535Z,92.80
2022-12-20T09:36:11.256Z,91.94
2022-12-20T09:38:37.886Z,90.84
2022-12-20T09:41:07.292Z,91.44
2022-12-20T09:43:34.905Z,91.64
2022-12-20T09:46:04.145Z,90.77
2022-12-20T09:48:35.736Z,90.48
2022-12-20T09:51:10.998Z,90.28
2022-12-20T09:53:56.318Z,90.43
2022-12-20T09:56:28.144Z,89.43
2022-12-20T09:59:04.209Z,89.22
2022-12-20T10:01:38.804Z,88.77
2022-12-20T10:04:12.764Z,89.22
2022-12-20T10:07:17.124Z,89.12
2022-12-20T10:10:05.178Z,89.66
2022-12-20T10:13:03.695Z,89.71
2022-12-20T10:15:33.231Z,89.88
2022-12-20T10:18:15.840Z,88.82
2022-12-20T10:21:17.542Z,88.96
2022-12-20T10:23:53.668Z,88.40
2022-12-20T10:26:22.709Z,87.95
2022-12-20T10:28:54.087Z,87.68
2022-12-20T10:31:22.013Z,88.17
2022-12-20T10:33:48.816Z,87.44
2022-12-20T10:36:19.762Z,87.90
2022-12-20T10:38:50.824Z,87.99
2022-12-20T10:41:25.675Z,87.43
2022-12-20T10:43:56.412Z,88.45
2022-12-20T10:46:24.553Z,88.28
2022-12-20T10:48:51.764Z,88.64
2022-12-20T10:51:21.974Z,88.34
2022-12-20T10:54:03.262Z,89.06
2022-12-20T10:56:31.542Z,89.00
2022-12-20T10:59:01.711Z,89.47
2022-12-20T11:01:35.792Z,89.57
2022-12-20T11:04:06.036Z,89.52
2022-12-20T11:06:38.464Z,88.93
2022-12-20T11:09:35.233Z,87.65
2022-12-20T11:12:05.214Z,86.66
2022-12-20T11:14:39.288Z,86.73
2022-12-20T11:17:20.262Z,86.61
2022-12-20T11:20:13.749Z,86.85
2022-12-20T11:23:09.249Z,87.61
2022-12-20T11:25:52.208Z,90.31
2022-12-20T11:28:46.646Z,90.65
2022-12-20T11:31:24.561Z,92.15
2022-12-20T11:33:54.301Z,92.69
2022-12-20T11:36:42.595Z,93.95
2022-12-20T11:39:40.597Z,95.26
2022-12-20T11:42:26.298Z,95.91
2022-12-20T11:45:10.358Z,97.02
2022-12-20T11:47:39.959Z,96.87
2022-12-20T11:50:27.944Z,98.47
2022-12-20T11:53:00.390Z,98.41
2022-12-20T11:55:32.377Z,98.14
2022-12-20T11:58:20.745Z,98.17
2022-12-20T12:01:16.797Z,98.38
2022-12-20T12:04:04.410Z,96.29
2022-12-20T12:06:37.066Z,94.98
2022-12-20T12:09:28.071Z,93.16
2022-12-20T12:12:08.523Z,92.49
2022-12-20T12:14:56.272Z,92.12
2022-12-20T12:17:48.186Z,91.34
2022-12-20T12:20:39.035Z,91.22
2022-12-20T12:23:42.949Z,91.09
2022-12-20T12:26:20.523Z,91.49
2022-12-20T12:28:52.863Z,90.38
2022-12-20T12:31:27.079Z,91.35
2022-12-20T12:34:06.736Z,92.63
2022-12-20T12:36:50.775Z,92.00
2022-12-20T12:39:40.073Z,92.92
2022-12-20T12:42:34.134Z,93.87
2022-12-20T12:45:05.845Z,93.73
2022-12-20T12:47:46.097Z,94.00
2022-12-20T12:50:28.291Z,94.61
2022-12-20T12:53:18.843Z,94.95
2022-12-20T12:55:50.929Z,93.61
2022-12-20T12:58:23.555Z,93.35
2022-12-20T13:00:50.373Z,93.81
2022-12-20T13:03:55.278Z,92.77
2022-12-20T13:06:30.963Z,92.32
2022-12-20T13:09:00.586Z,91.36
2022-12-20T13:11:29.906Z,90.34
2022-12-20T13:14:17.916Z,89.99
2022-12-20T13:19:37.334Z,88.94
2022-12-20T13:22:13.049Z,88.18
2022-12-20T13:24:48.652Z,88.50
2022-12-20T13:27:41.253Z,87.31
2022-12-20T13:30:07.826Z,87.11
2022-12-20T13:32:49.504Z,87.56
2022-12-20T13:35:25.268Z,87.22
2022-12-20T13:37:56.145Z,87.53
2022-12-20T13:40:44.373Z,87.74
2022-12-20T13:43:26.265Z,88.34
2022-12-20T13:46:10.421Z,88.90
2022-12-20T13:48:52.174Z,88.70
2022-12-20T13:51:24.582Z,87.99
2022-12-20T13:54:00.863Z,88.08
2022-12-20T13:56:27.322Z,87.81
2022-12-20T13:58:55.661Z,88.42
2022-12-20T14:01:24.818Z,88.40
2022-12-20T14:03:53.350Z,88.50
2022-12-20T14:06:26.910Z,88.55
2022-12-20T14:08:54.709Z,88.98
2022-12-20T14:11:26.812Z,88.13
2022-12-20T14:14:00.469Z,88.49
2022-12-20T14:16:29.694Z,89.40
2022-12-20T14:19:13.217Z,88.78
2022-12-20T14:21:46.049Z,88.67
2022-12-20T14:24:21.116Z,88.92
2022-12-20T14:26:52.079Z,88.42
2022-12-20T14:29:24.005Z,88.44
2022-12-20T14:31:51.163Z,88.45
2022-12-20T14:34:29.542Z,88.18
2022-12-20T14:37:30.222Z,88.18
2022-12-20T14:40:04.664Z,88.66
2022-12-20T14:42:36.832Z,88.49
2022-12-20T14:45:09.486Z,87.96
2022-12-20T14:47:37.780Z,88.22
2022-12-20T14:50:17.325Z,88.30
2022-12-20T14:52:44.759Z,88.48
2022-12-20T14:55:25.593Z,87.85
2022-12-20T14:57:55.038Z,88.40
2022-12-20T15:00:30.819Z,89.33
2022-12-20T15:03:00.888Z,89.30
2022-12-20T15:05:34.457Z,89.61
2022-12-20T15:08:17.097Z,90.06
2022-12-20T15:10:54.394Z,89.45
2022-12-20T15:13:25.389Z,88.77
2022-12-20T15:15:52.105Z,89.50
2022-12-20T15:18:21.541Z,89.73
2022-12-20T15:21:05.569Z,90.32
2022-12-20T15:23:34.566Z,90.80
2022-12-20T15:26:01.109Z,90.53
2022-12-20T15:28:28.013Z,91.52
2022-12-20T15:30:55.411Z,92.79
2022-12-20T15:33:34.600Z,93.15
2022-12-20T15:36:01.132Z,93.81
2022-12-20T15:38:54.963Z,94.80
2022-12-20T15:41:20.314Z,92.78
2022-12-20T15:43:48.360Z,92.91
2022-12-20T15:46:14.935Z,91.22
2022-12-20T15:48:41.682Z,90.22
2022-12-20T15:51:37.008Z,89.54
2022-12-20T15:54:17.266Z,89.37
2022-12-20T15:56:43.769Z,89.30
2022-12-20T15:59:57.011Z,89.19
2022-12-20T16:01:59.547Z,87.94
2022-12-20T16:04:28.638Z,88.05
2022-12-20T16:06:55.505Z,87.82
2022-12-20T16:09:25.667Z,88.29
2022-12-20T16:11:52.568Z,87.63
2022-12-20T16:14:21.368Z,88.23
2022-12-20T16:16:50.186Z,87.34
2022-12-20T16:19:17.383Z,87.53
2022-12-20T16:21:47.872Z,87.46
2022-12-20T16:24:17.159Z,87.07
2022-12-20T16:26:44.033Z,87.24
2022-12-20T16:29:10.583Z,87.69
2022-12-20T16:31:44.495Z,86.88
2022-12-20T16:34:16.957Z,86.87
2022-12-20T16:36:44.337Z,87.04
2022-12-20T16:39:11.347Z,87.70
2022-12-20T16:41:41.225Z,88.13
2022-12-20T16:44:13.386Z,88.30
2022-12-20T16:46:40.149Z,87.35
2022-12-20T16:49:06.943Z,87.65
2022-12-20T16:51:43.591Z,87.84
2022-12-20T16:54:19.995Z,87.78
2022-12-20T16:56:47.868Z,88.24
2022-12-20T16:59:23.353Z,88.40
2022-12-20T17:01:53.235Z,88.12
2022-12-20T17:04:21.368Z,88.12
2022-12-20T17:06:48.426Z,88.50
2022-12-20T17:09:18.401Z,88.78
2022-12-20T17:11:45.439Z,89.22
2022-12-20T17:14:13.690Z,88.41
2022-12-20T17:16:41.230Z,89.18
2022-12-20T17:19:07.924Z,89.17
2022-12-20T17:24:23.619Z,90.52
2022-12-20T17:26:50.689Z,91.19
2022-12-20T17:29:17.977Z,91.08
2022-12-20T17:31:46.602Z,91.22
2022-12-20T17:34:20.291Z,91.53
2022-12-20T17:36:48.784Z,91.26
2022-12-20T17:39:15.908Z,91.59
2022-12-20T17:41:44.078Z,91.10
2022-12-20T17:44:25.240Z,90.83
2022-12-20T17:46:53.026Z,91.08
2022-12-20T17:49:20.360Z,90.97
2022-12-20T17:51:47.128Z,91.10
2022-12-20T17:54:18.776Z,92.38
2022-12-20T17:56:46.007Z,92.65
2022-12-20T17:59:14.023Z,91.72
2022-12-20T18:01:41.754Z,92.18
2022-12-20T18:04:11.254Z,92.76
2022-12-20T18:06:39.566Z,92.57
2022-12-20T18:09:12.170Z,92.69
2022-12-20T18:11:38.883Z,95.35
2022-12-20T18:14:05.560Z,97.78
2022-12-20T18:16:35.235Z,100.00
2022-12-20T18:22:49.613Z,100.00
2022-12-20T18:25:18.262Z,100.00
2022-12-20T18:27:44.930Z,100.00
2022-12-20T18:30:13.152Z,100.00
2022-12-20T18:32:41.049Z,100.00
2022-12-20T18:35:08.360Z,100.00
2022-12-20T18:37:34.964Z,100.00
2022-12-20T18:40:01.449Z,100.00
2022-12-20T18:42:27.988Z,100.00
2022-12-20T18:44:54.606Z,100.00
2022-12-20T18:47:21.174Z,100.00
2022-12-20T18:49:47.880Z,100.00
2022-12-20T18:52:14.419Z,100.00
2022-12-20T18:54:41.145Z,100.00
2022-12-20T18:57:07.837Z,100.00
2022-12-20T18:59:34.918Z,100.00
2022-12-20T19:02:01.959Z,100.00
2022-12-20T19:04:28.610Z,100.00
2022-12-20T19:06:55.296Z,100.00
2022-12-20T19:09:22.484Z,100.00
2022-12-20T19:11:56.219Z,100.00
2022-12-20T19:14:23.247Z,100.00
2022-12-20T19:16:50.301Z,99.18
2022-12-20T19:19:17.863Z,99.21
2022-12-20T19:21:45.083Z,98.89
2022-12-20T19:24:11.977Z,97.41
2022-12-20T19:26:39.689Z,96.98
2022-12-20T19:29:06.871Z,96.45
2022-12-20T19:31:36.686Z,95.59
2022-12-20T19:34:07.386Z,95.12
2022-12-20T19:36:41.878Z,95.00
2022-12-20T19:39:13.591Z,95.13
2022-12-20T19:41:40.922Z,94.46
2022-12-20T19:44:07.433Z,94.28
2022-12-20T19:46:33.974Z,93.68
2022-12-20T19:49:00.697Z,93.04
2022-12-20T19:51:28.455Z,93.55
2022-12-20T19:53:56.997Z,93.82
2022-12-20T19:56:26.896Z,93.49
2022-12-20T19:58:54.903Z,93.32
2022-12-20T20:01:25.756Z,94.02
2022-12-20T20:03:56.491Z,93.85
2022-12-20T20:06:24.329Z,93.28
2022-12-20T20:08:51.295Z,92.97
2022-12-20T20:11:19.289Z,92.80
2022-12-20T20:13:46.476Z,92.19
2022-12-20T20:16:17.006Z,92.03
2022-12-20T20:18:49.196Z,91.87
2022-12-20T20:21:19.845Z,92.23
2022-12-20T20:23:46.654Z,91.63
2022-12-20T20:26:15.846Z,91.53
2022-12-20T20:28:45.074Z,91.62
2022-12-20T20:31:13.959Z,91.75
2022-12-20T20:33:40.930Z,91.53
2022-12-20T20:36:08.065Z,92.09
2022-12-20T20:38:35.252Z,92.25
2022-12-20T20:41:01.930Z,91.98
2022-12-20T20:43:29.992Z,91.95
2022-12-20T20:45:56.675Z,91.71
2022-12-20T20:48:23.250Z,91.79
2022-12-20T20:50:50.439Z,91.99
2022-12-20T20:53:16.952Z,92.04
2022-12-20T20:55:43.619Z,93.44
2022-12-20T20:58:10.377Z,92.80
2022-12-20T21:00:37.042Z,92.33
2022-12-20T21:03:04.171Z,91.16
2022-12-20T21:08:19.431Z,90.89
2022-12-20T21:10:46.202Z,90.25
2022-12-20T21:13:12.646Z,90.20
2022-12-20T21:15:40.876Z,89.78
2022-12-20T21:18:07.405Z,90.22
2022-12-20T21:20:34.119Z,90.10
2022-12-20T21:23:01.616Z,89.83
2022-12-20T21:25:28.484Z,90.77
2022-12-20T21:27:56.537Z,90.54
2022-12-20T21:30:23.773Z,91.10
2022-12-20T21:32:50.791Z,90.54
2022-12-20T21:35:17.446Z,90.15
2022-12-20T21:37:43.955Z,90.72
2022-12-20T21:40:10.986Z,91.16
2022-12-20T21:42:37.850Z,90.67
2022-12-20T21:45:04.924Z,90.57
2022-12-20T21:47:31.527Z,91.01
2022-12-20T21:49:58.073Z,91.28
2022-12-20T21:52:24.667Z,90.41
2022-12-20T21:54:51.278Z,90.16
2022-12-20T21:57:17.960Z,90.83
2022-12-20T21:59:44.478Z,91.76
2022-12-20T22:02:12.482Z,91.36
2022-12-20T22:04:39.378Z,91.60
2022-12-20T22:07:06.097Z,91.93
2022-12-20T22:09:32.651Z,93.07
2022-12-20T22:11:59.156Z,95.26
2022-12-20T22:14:26.084Z,97.23
2022-12-20T22:16:54.831Z,97.60
2022-12-20T22:19:21.528Z,99.20
2022-12-20T22:21:52.343Z,100.00
2022-12-20T22:24:24.051Z,100.00
2022-12-20T22:26:50.573Z,100.00
2022-12-20T22:29:17.097Z,100.00
2022-12-20T22:31:43.833Z,100.00
2022-12-20T22:34:10.454Z,100.00
2022-12-20T22:36:37.270Z,100.00
2022-12-20T22:39:04.168Z,100.00
2022-12-20T22:41:34.987Z,100.00
2022-12-20T22:44:02.493Z,100.00
2022-12-20T22:46:29.975Z,100.00
2022-12-20T22:48:58.005Z,100.00
2022-12-20T22:51:27.265Z,100.00
2022-12-20T22:53:54.314Z,100.00
2022-12-20T22:56:21.806Z,100.00
2022-12-20T22:58:48.848Z,100.00
2022-12-20T23:01:17.392Z,100.00
2022-12-20T23:03:44.644Z,100.00
2022-12-20T23:06:17.224Z,100.00
2022-12-20T23:08:44.282Z,100.00
2022-12-20T23:11:35.823Z,100.00
2022-12-20T23:14:22.439Z,100.00
2022-12-20T23:16:49.381Z,100.00
2022-12-20T23:19:15.855Z,100.00
2022-12-20T23:22:01.077Z,100.00
2022-12-20T23:24:27.733Z,100.00
2022-12-20T23:26:54.267Z,100.00
2022-12-20T23:29:20.992Z,100.00
2022-12-20T23:31:47.623Z,100.00
2022-12-20T23:34:14.335Z,100.00
2022-12-20T23:36:40.954Z,100.00
2022-12-20T23:39:08.124Z,100.00
2022-12-20T23:41:34.915Z,100.00
2022-12-20T23:44:03.984Z,100.00
2022-12-20T23:46:30.544Z,100.00
2022-12-20T23:48:57.192Z,100.00
2022-12-20T23:51:23.761Z,100.00
2022-12-20T23:53:53.506Z,100.00
2022-12-20T23:56:21.707Z,100.00
2022-12-20T23:58:54.387Z,100.00
